Ship Status Report: callsign NRPK

sailwx.info

Track history (hours):
 
Tides and Currents Weather Stations Pressure Air Temp Water Temp Dewpoint Dewpoint Depression Visibility Wind Speed Wind Dir Waves Ship Positions

Callsign NRPK (name unknown)

Last reported at 2014-Sep-30 17:31 UTC. Time now 2014-Sep-30 17:59 UTC.
Position N 34°42' W 076°41'.

AWS

Date/timePositionNaut miles runAvg speedWind from/ knotsBaromVisibWave heightAir tempDewpointWater temp
2014-Sep-30 17:31N 34°42' W 076°41'0 0.0
2014-Sep-30 16:31N 34°42' W 076°41'0 0.0
2014-Sep-30 15:32N 34°42' W 076°41'0 0.0
2014-Sep-30 14:31N 34°42' W 076°41'0 0.0
2014-Sep-30 13:31N 34°42' W 076°41'0 0.0
2014-Sep-30 12:28N 34°42' W 076°41'0 0.0
2014-Sep-30 11:31N 34°42' W 076°41'0 0.0
2014-Sep-30 10:31N 34°42' W 076°41'0 0.0
2014-Sep-30 09:31N 34°42' W 076°41'0 0.0
2014-Sep-30 08:31N 34°42' W 076°41'0 0.0
2014-Sep-30 07:31N 34°42' W 076°41'0 0.0
2014-Sep-30 06:32N 34°42' W 076°41'0 0.0
2014-Sep-30 05:31N 34°42' W 076°41'0 0.0
2014-Sep-30 04:31N 34°42' W 076°41'0 0.0
2014-Sep-30 03:31N 34°42' W 076°41'0 0.0
2014-Sep-30 02:31N 34°42' W 076°41'0 0.0
2014-Sep-30 01:31N 34°42' W 076°41'0 0.0
2014-Sep-30 00:31N 34°42' W 076°41'0 0.0
2014-Sep-29 23:31N 34°42' W 076°41'0 0.0
2014-Sep-29 22:28N 34°42' W 076°41'0 0.0
2014-Sep-29 21:31N 34°42' W 076°41'0 0.0
2014-Sep-29 20:31N 34°42' W 076°41'0 0.0
2014-Sep-29 19:31N 34°42' W 076°41'0 0.0
2014-Sep-29 18:31N 34°42' W 076°41'0 0.0
2014-Sep-29 17:31N 34°42' W 076°41'0 0.0
2014-Sep-29 16:31N 34°42' W 076°41'0 0.0
2014-Sep-29 15:31N 34°42' W 076°41'0 0.0
2014-Sep-29 14:31N 34°42' W 076°41'0 0.0
2014-Sep-29 13:31N 34°42' W 076°41'0 0.0
2014-Sep-29 12:32N 34°42' W 076°41'0 0.0
2014-Sep-29 11:31N 34°42' W 076°41'0 0.0
2014-Sep-29 10:31N 34°42' W 076°41'0 0.0
2014-Sep-29 09:31N 34°42' W 076°41'0 0.0
2014-Sep-29 08:31N 34°42' W 076°41'0 0.0
2014-Sep-29 07:31N 34°42' W 076°41'0 0.0
2014-Sep-29 06:31N 34°42' W 076°41'0 0.0
2014-Sep-29 05:32N 34°42' W 076°41'0 0.0
2014-Sep-29 04:25N 34°42' W 076°41'0 0.0
2014-Sep-29 03:31N 34°42' W 076°41'0 0.0
2014-Sep-29 02:31N 34°42' W 076°41'0 0.0
2014-Sep-29 01:31N 34°42' W 076°41'0 0.0
2014-Sep-29 00:31N 34°42' W 076°41'0 0.0
2014-Sep-28 23:32N 34°42' W 076°41'0 0.0
2014-Sep-28 22:32N 34°42' W 076°41'0 0.0
2014-Sep-28 21:31N 34°42' W 076°41'0 0.0
2014-Sep-28 20:31N 34°42' W 076°41'0 0.0
2014-Sep-28 19:31N 34°42' W 076°41'0 0.0
2014-Sep-28 18:31N 34°42' W 076°41'0 0.0
2014-Sep-28 16:31N 34°42' W 076°41'0 0.0
2014-Sep-28 15:33N 34°42' W 076°41'8 8.2
2014-Sep-28 14:33N 34°34' W 076°40'13 8.6
2014-Sep-28 13:04N 34°29' W 076°26'1 0.8
2014-Sep-28 12:16N 34°30' W 076°26'0 0.3
2014-Sep-28 11:33N 34°30' W 076°25'141 3.7
2014-Sep-26 21:08N 36°47' W 075°47'5 8.0
2014-Sep-26 20:33N 36°50' W 075°51'5 5.3
2014-Sep-26 19:32N 36°53' W 075°56'6 6.4
2014-Sep-26 18:33N 36°59' W 076°00'6 6.0
2014-Sep-26 17:33N 36°59' W 076°08'11 9.1
2014-Sep-26 16:19N 36°53' W 076°20'1 0.4
2014-Sep-26 14:13N 36°53' W 076°21'0 0.0
2014-Sep-26 07:28N 36°53' W 076°21'0 0.0
2014-Sep-26 05:19N 36°53' W 076°21'0 0.0
2014-Sep-26 04:31N 36°53' W 076°21'0 0.0
2014-Sep-26 01:16N 36°53' W 076°21'5 7.4
2014-Sep-26 00:33N 36°58' W 076°20'1211.9
2014-Sep-25 23:32N 36°58' W 076°05'4 3.8
2014-Sep-25 22:31N 36°59' W 076°00'2 1.7
2014-Sep-25 21:31N 37°00' W 076°02'9 9.4
2014-Sep-25 20:32N 36°56' W 075°51'2 0.3
2014-Sep-25 14:32N 36°56' W 075°54'1313.5
2014-Sep-25 13:33N 36°59' W 076°10'10 8.6
2014-Sep-25 12:22N 36°53' W 076°20'1 0.4
2014-Sep-25 10:28N 36°53' W 076°21'0 0.0
2014-Sep-25 09:25N 36°53' W 076°21'0 0.0
2014-Sep-25 06:13N 36°53' W 076°21'0 0.0
2014-Sep-25 05:16N 36°53' W 076°21'0 0.0
2014-Sep-25 04:19N 36°53' W 076°21'0 0.0
2014-Sep-25 01:31N 36°53' W 076°21'0 0.0
2014-Sep-25 00:28N 36°53' W 076°21'0 0.0
2014-Sep-24 22:31N 36°53' W 076°21'0 0.0
2014-Sep-24 21:13N 36°53' W 076°21'0 0.0
2014-Sep-24 18:25N 36°53' W 076°21'0 0.0
2014-Sep-24 16:13N 36°53' W 076°21'0 0.0
2014-Sep-24 15:10N 36°53' W 076°21'0 0.0
2014-Sep-24 13:19N 36°53' W 076°21'0 0.0
2014-Sep-24 07:16N 36°53' W 076°21'0 0.0
2014-Sep-24 06:07N 36°53' W 076°21'0 0.0
2014-Sep-24 05:25N 36°53' W 076°21'0 0.0
2014-Sep-24 03:31N 36°53' W 076°21'0 0.0
2014-Sep-24 00:25N 36°53' W 076°21'0 0.0
2014-Sep-23 21:19N 36°53' W 076°21'0 0.0
2014-Sep-23 18:25N 36°53' W 076°21'0 0.0
2014-Sep-23 17:22N 36°53' W 076°21'0 0.0
2014-Sep-23 14:07N 36°53' W 076°21'0 0.0
2014-Sep-23 13:29N 36°53' W 076°21'0 0.0
2014-Sep-23 10:25N 36°53' W 076°21'0 0.0
2014-Sep-23 09:13N 36°53' W 076°21'0 0.0
2014-Sep-23 05:07N 36°53' W 076°21'0 0.0
2014-Sep-23 02:25N 36°53' W 076°21'0 0.0
2014-Sep-23 01:19N 36°53' W 076°21'0 0.0
2014-Sep-22 18:28N 36°53' W 076°21'0 0.0
2014-Sep-22 17:25N 36°53' W 076°21'0 0.0
2014-Sep-22 16:28N 36°53' W 076°21'0 0.0
2014-Sep-22 15:07N 36°53' W 076°21'0 0.0
2014-Sep-22 14:22N 36°53' W 076°21'0 0.0
2014-Sep-22 11:19N 36°53' W 076°21'0 0.0
2014-Sep-22 08:13N 36°53' W 076°21'0 0.0
2014-Sep-22 07:19N 36°53' W 076°21'0 0.0
2014-Sep-22 04:29N 36°53' W 076°21'0 0.0
2014-Sep-22 02:25N 36°53' W 076°21'0 0.0
2014-Sep-22 01:28N 36°53' W 076°21'1 0.9
2014-Sep-22 00:33N 36°53' W 076°20'9 9.4
2014-Sep-21 23:33N 37°00' W 076°12'1312.6
2014-Sep-21 22:31N 36°57' W 075°56'1414.4
2014-Sep-21 21:33N 37°08' W 075°45'  
Track history (hours):
 
Tides and Currents Weather Stations Pressure Air Temp Water Temp Dewpoint Dewpoint Depression Visibility Wind Speed Wind Dir Waves Ship Positions

Callsign NRPK (name unknown)

Last reported at 2014-Sep-30 17:31 UTC. Time now 2014-Sep-30 17:59 UTC.
Position N 34°42' W 076°41'.

AWS

Date/timePositionNaut miles runAvg speedWind from/ knotsBaromVisibWave heightAir tempDewpointWater temp
2014-Sep-30 17:31N 34°42' W 076°41'0 0.0
2014-Sep-30 16:31N 34°42' W 076°41'0 0.0
2014-Sep-30 15:32N 34°42' W 076°41'0 0.0
2014-Sep-30 14:31N 34°42' W 076°41'0 0.0
2014-Sep-30 13:31N 34°42' W 076°41'0 0.0
2014-Sep-30 12:28N 34°42' W 076°41'0 0.0
2014-Sep-30 11:31N 34°42' W 076°41'0 0.0
2014-Sep-30 10:31N 34°42' W 076°41'0 0.0
2014-Sep-30 09:31N 34°42' W 076°41'0 0.0
2014-Sep-30 08:31N 34°42' W 076°41'0 0.0
2014-Sep-30 07:31N 34°42' W 076°41'0 0.0
2014-Sep-30 06:32N 34°42' W 076°41'0 0.0
2014-Sep-30 05:31N 34°42' W 076°41'0 0.0
2014-Sep-30 04:31N 34°42' W 076°41'0 0.0
2014-Sep-30 03:31N 34°42' W 076°41'0 0.0
2014-Sep-30 02:31N 34°42' W 076°41'0 0.0
2014-Sep-30 01:31N 34°42' W 076°41'0 0.0
2014-Sep-30 00:31N 34°42' W 076°41'0 0.0
2014-Sep-29 23:31N 34°42' W 076°41'0 0.0
2014-Sep-29 22:28N 34°42' W 076°41'0 0.0
2014-Sep-29 21:31N 34°42' W 076°41'0 0.0
2014-Sep-29 20:31N 34°42' W 076°41'0 0.0
2014-Sep-29 19:31N 34°42' W 076°41'0 0.0
2014-Sep-29 18:31N 34°42' W 076°41'0 0.0
2014-Sep-29 17:31N 34°42' W 076°41'0 0.0
2014-Sep-29 16:31N 34°42' W 076°41'0 0.0
2014-Sep-29 15:31N 34°42' W 076°41'0 0.0
2014-Sep-29 14:31N 34°42' W 076°41'0 0.0
2014-Sep-29 13:31N 34°42' W 076°41'0 0.0
2014-Sep-29 12:32N 34°42' W 076°41'0 0.0
2014-Sep-29 11:31N 34°42' W 076°41'0 0.0
2014-Sep-29 10:31N 34°42' W 076°41'0 0.0
2014-Sep-29 09:31N 34°42' W 076°41'0 0.0
2014-Sep-29 08:31N 34°42' W 076°41'0 0.0
2014-Sep-29 07:31N 34°42' W 076°41'0 0.0
2014-Sep-29 06:31N 34°42' W 076°41'0 0.0
2014-Sep-29 05:32N 34°42' W 076°41'0 0.0
2014-Sep-29 04:25N 34°42' W 076°41'0 0.0
2014-Sep-29 03:31N 34°42' W 076°41'0 0.0
2014-Sep-29 02:31N 34°42' W 076°41'0 0.0
2014-Sep-29 01:31N 34°42' W 076°41'0 0.0
2014-Sep-29 00:31N 34°42' W 076°41'0 0.0
2014-Sep-28 23:32N 34°42' W 076°41'0 0.0
2014-Sep-28 22:32N 34°42' W 076°41'0 0.0
2014-Sep-28 21:31N 34°42' W 076°41'0 0.0
2014-Sep-28 20:31N 34°42' W 076°41'0 0.0
2014-Sep-28 19:31N 34°42' W 076°41'0 0.0
2014-Sep-28 18:31N 34°42' W 076°41'0 0.0
2014-Sep-28 16:31N 34°42' W 076°41'0 0.0
2014-Sep-28 15:33N 34°42' W 076°41'8 8.2
2014-Sep-28 14:33N 34°34' W 076°40'13 8.6
2014-Sep-28 13:04N 34°29' W 076°26'1 0.8
2014-Sep-28 12:16N 34°30' W 076°26'0 0.3
2014-Sep-28 11:33N 34°30' W 076°25'141 3.7
2014-Sep-26 21:08N 36°47' W 075°47'5 8.0
2014-Sep-26 20:33N 36°50' W 075°51'5 5.3
2014-Sep-26 19:32N 36°53' W 075°56'6 6.4
2014-Sep-26 18:33N 36°59' W 076°00'6 6.0
2014-Sep-26 17:33N 36°59' W 076°08'11 9.1
2014-Sep-26 16:19N 36°53' W 076°20'1 0.4
2014-Sep-26 14:13N 36°53' W 076°21'0 0.0
2014-Sep-26 07:28N 36°53' W 076°21'0 0.0
2014-Sep-26 05:19N 36°53' W 076°21'0 0.0
2014-Sep-26 04:31N 36°53' W 076°21'0 0.0
2014-Sep-26 01:16N 36°53' W 076°21'5 7.4
2014-Sep-26 00:33N 36°58' W 076°20'1211.9
2014-Sep-25 23:32N 36°58' W 076°05'4 3.8
2014-Sep-25 22:31N 36°59' W 076°00'2 1.7
2014-Sep-25 21:31N 37°00' W 076°02'9 9.4
2014-Sep-25 20:32N 36°56' W 075°51'2 0.3
2014-Sep-25 14:32N 36°56' W 075°54'1313.5
2014-Sep-25 13:33N 36°59' W 076°10'10 8.6
2014-Sep-25 12:22N 36°53' W 076°20'1 0.4
2014-Sep-25 10:28N 36°53' W 076°21'0 0.0
2014-Sep-25 09:25N 36°53' W 076°21'0 0.0
2014-Sep-25 06:13N 36°53' W 076°21'0 0.0
2014-Sep-25 05:16N 36°53' W 076°21'0 0.0
2014-Sep-25 04:19N 36°53' W 076°21'0 0.0
2014-Sep-25 01:31N 36°53' W 076°21'0 0.0
2014-Sep-25 00:28N 36°53' W 076°21'0 0.0
2014-Sep-24 22:31N 36°53' W 076°21'0 0.0
2014-Sep-24 21:13N 36°53' W 076°21'0 0.0
2014-Sep-24 18:25N 36°53' W 076°21'0 0.0
2014-Sep-24 16:13N 36°53' W 076°21'0 0.0
2014-Sep-24 15:10N 36°53' W 076°21'0 0.0
2014-Sep-24 13:19N 36°53' W 076°21'0 0.0
2014-Sep-24 07:16N 36°53' W 076°21'0 0.0
2014-Sep-24 06:07N 36°53' W 076°21'0 0.0
2014-Sep-24 05:25N 36°53' W 076°21'0 0.0
2014-Sep-24 03:31N 36°53' W 076°21'0 0.0
2014-Sep-24 00:25N 36°53' W 076°21'0 0.0
2014-Sep-23 21:19N 36°53' W 076°21'0 0.0
2014-Sep-23 18:25N 36°53' W 076°21'0 0.0
2014-Sep-23 17:22N 36°53' W 076°21'0 0.0
2014-Sep-23 14:07N 36°53' W 076°21'0 0.0
2014-Sep-23 13:29N 36°53' W 076°21'0 0.0
2014-Sep-23 10:25N 36°53' W 076°21'0 0.0
2014-Sep-23 09:13N 36°53' W 076°21'0 0.0
2014-Sep-23 05:07N 36°53' W 076°21'0 0.0
2014-Sep-23 02:25N 36°53' W 076°21'0 0.0
2014-Sep-23 01:19N 36°53' W 076°21'0 0.0
2014-Sep-22 18:28N 36°53' W 076°21'0 0.0
2014-Sep-22 17:25N 36°53' W 076°21'0 0.0
2014-Sep-22 16:28N 36°53' W 076°21'0 0.0
2014-Sep-22 15:07N 36°53' W 076°21'0 0.0
2014-Sep-22 14:22N 36°53' W 076°21'0 0.0
2014-Sep-22 11:19N 36°53' W 076°21'0 0.0
2014-Sep-22 08:13N 36°53' W 076°21'0 0.0
2014-Sep-22 07:19N 36°53' W 076°21'0 0.0
2014-Sep-22 04:29N 36°53' W 076°21'0 0.0
2014-Sep-22 02:25N 36°53' W 076°21'0 0.0
2014-Sep-22 01:28N 36°53' W 076°21'1 0.9
2014-Sep-22 00:33N 36°53' W 076°20'9 9.4
2014-Sep-21 23:33N 37°00' W 076°12'1312.6
2014-Sep-21 22:31N 36°57' W 075°56'1414.4
2014-Sep-21 21:33N 37°08' W 075°45'  

Dump ship's entire track history